Time;durP1;ratioP1;P1;durP2;ratioP2;P2;SDS_P1;SDS_P2;PMS_P1;PMS_P2;Temp;Humidity;BMP_temperature;BMP_pressure;BME280_temperature;BME280_humidity;BME280_pressure;Samples;Min_cycle;Max_cycle;Signal;HPM_P1;HPM_P2
2023/07/11 00:00:43;;;;;;;7.68;4.20;;;;;;;20.87;63.98;101522.13;5095343;28;20102;-85
2023/07/11 00:03:12;;;;;;;10.83;4.63;;;;;;;20.68;63.99;101511.34;5076761;28;20028;-86
2023/07/11 00:05:38;;;;;;;8.73;4.57;;;;;;;20.76;63.93;101525.00;5094229;28;20032;-86
2023/07/11 00:08:14;;;;;;;14.15;5.13;;;;;;;20.69;64.24;101513.91;5076433;28;20510;-85
2023/07/11 00:10:41;;;;;;;5.78;4.50;;;;;;;20.64;64.48;101521.63;5110072;28;20394;-86
2023/07/11 00:13:11;;;;;;;7.53;4.38;;;;;;;20.60;64.85;101504.00;5094352;28;20035;-86
2023/07/11 00:15:37;;;;;;;11.25;4.95;;;;;;;20.57;65.03;101509.69;5094036;28;20035;-85
2023/07/11 00:18:05;;;;;;;8.35;4.60;;;;;;;20.31;65.80;101501.31;5079622;28;20028;-85
2023/07/11 00:20:30;;;;;;;7.30;4.72;;;;;;;20.35;65.97;101495.50;5094619;28;20032;-85
2023/07/11 00:22:55;;;;;;;8.45;4.68;;;;;;;20.30;65.80;101486.09;5094093;28;20020;-85
2023/07/11 00:25:21;;;;;;;11.18;5.47;;;;;;;20.30;65.77;101491.50;5093911;28;20157;-85
2023/07/11 00:27:46;;;;;;;7.75;4.85;;;;;;;20.30;66.05;101494.22;5094185;28;20031;-86
2023/07/11 00:30:14;;;;;;;7.00;4.72;;;;;;;20.33;65.85;101492.06;5109824;28;20387;-86
2023/07/11 00:32:40;;;;;;;6.85;5.43;;;;;;;20.26;66.23;101504.44;5093975;28;20119;-85
2023/07/11 00:35:12;;;;;;;9.38;5.03;;;;;;;20.04;66.82;101494.78;5108460;28;20128;-85
2023/07/11 00:37:38;;;;;;;5.97;5.30;;;;;;;20.08;67.19;101492.66;5093844;28;20502;-86
2023/07/11 00:40:03;;;;;;;9.60;5.78;;;;;;;20.14;66.74;101486.69;5109431;28;20035;-85
2023/07/11 00:42:36;;;;;;;10.00;5.38;;;;;;;20.12;66.86;101486.00;5094022;28;20034;-85
2023/07/11 00:45:03;;;;;;;6.38;5.07;;;;;;;20.05;67.15;101496.50;5093778;28;20031;-85
2023/07/11 00:47:30;;;;;;;12.73;5.13;;;;;;;20.01;67.37;101494.22;5093632;28;20470;-86
2023/07/11 00:50:06;;;;;;;12.40;5.85;;;;;;;20.06;66.87;101486.53;5075770;28;20046;-86
2023/07/11 00:52:36;;;;;;;10.95;5.40;;;;;;;19.91;67.50;101473.50;5084173;28;20020;-87
2023/07/11 00:55:09;;;;;;;11.82;5.63;;;;;;;19.85;67.49;101476.72;5096175;28;20440;-84
2023/07/11 00:57:40;;;;;;;12.60;5.50;;;;;;;19.91;67.34;101495.09;5075983;28;20016;-86
2023/07/11 01:00:06;;;;;;;11.18;5.30;;;;;;;19.89;67.56;101493.53;5093685;28;20032;-85
2023/07/11 01:02:34;;;;;;;18.63;5.57;;;;;;;19.73;68.03;101481.41;5093581;28;20020;-86
2023/07/11 01:05:03;;;;;;;14.07;5.38;;;;;;;19.84;68.17;101501.19;5075138;28;20065;-86
2023/07/11 01:07:35;;;;;;;15.82;5.28;;;;;;;19.71;68.59;101502.31;5093582;28;20494;-86
2023/07/11 01:10:01;;;;;;;10.43;5.13;;;;;;;19.68;68.64;101493.66;5093798;28;20028;-85
2023/07/11 01:12:27;;;;;;;10.93;5.20;;;;;;;19.80;68.46;101500.63;5075644;28;20054;-85
2023/07/11 01:14:52;;;;;;;8.57;5.47;;;;;;;19.69;68.54;101482.69;5075275;28;20027;-86
2023/07/11 01:17:30;;;;;;;8.18;5.32;;;;;;;19.74;68.62;101504.72;5093182;28;20031;-87
2023/07/11 01:19:59;;;;;;;14.70;5.30;;;;;;;19.61;68.69;101493.28;5093259;28;20372;-86
2023/07/11 01:22:26;;;;;;;8.00;5.85;;;;;;;19.53;69.21;101485.06;5108465;28;20039;-86
2023/07/11 01:24:52;;;;;;;15.75;5.43;;;;;;;19.50;69.55;101483.50;5091808;28;20020;-86
2023/07/11 01:27:22;;;;;;;12.50;5.43;;;;;;;19.53;69.61;101485.06;5075862;28;20070;-86
2023/07/11 01:29:52;;;;;;;8.80;5.32;;;;;;;19.54;69.84;101489.47;5074901;28;20027;-86
2023/07/11 01:32:18;;;;;;;7.78;5.47;;;;;;;19.35;70.16;101467.84;5095878;28;20032;-86
2023/07/11 01:34:46;;;;;;;7.60;5.47;;;;;;;19.56;69.91;101475.81;5092315;28;20047;-86
2023/07/11 01:37:13;;;;;;;6.27;5.67;;;;;;;19.44;70.07;101475.97;5074082;28;20057;-86
2023/07/11 01:39:38;;;;;;;6.90;4.45;;;;;;;19.39;70.03;101459.34;5108473;28;20290;-86
2023/07/11 01:42:04;;;;;;;9.27;5.60;;;;;;;19.42;70.26;101469.84;5091386;28;20102;-86
2023/07/11 01:44:32;;;;;;;11.70;5.18;;;;;;;19.23;70.38;101459.84;5073881;28;20028;-86
2023/07/11 01:47:01;;;;;;;10.70;5.57;;;;;;;19.27;70.36;101466.69;5093206;28;20028;-86
2023/07/11 01:49:28;;;;;;;11.73;6.10;;;;;;;19.31;70.27;101453.78;5087734;28;20027;-86
2023/07/11 01:52:03;;;;;;;7.95;5.72;;;;;;;19.36;70.23;101465.00;5085370;28;20019;-86
2023/07/11 01:54:29;;;;;;;9.20;5.50;;;;;;;19.23;70.84;101454.44;5090153;28;20028;-86
2023/07/11 01:56:54;;;;;;;9.73;5.72;;;;;;;19.19;70.95;101453.03;5060377;28;20382;-87
2023/07/11 01:59:22;;;;;;;9.32;5.88;;;;;;;19.19;70.86;101452.19;5074479;28;20028;-85
2023/07/11 02:01:47;;;;;;;7.90;5.57;;;;;;;18.92;72.03;101424.00;5092535;28;20024;-86
2023/07/11 02:04:13;;;;;;;7.03;5.97;;;;;;;19.04;72.04;101441.78;5075614;28;20515;-86
2023/07/11 02:06:38;;;;;;;9.30;6.05;;;;;;;18.97;71.82;101426.28;5093171;28;20028;-86
2023/07/11 02:09:04;;;;;;;14.93;5.57;;;;;;;19.01;71.94;101433.97;5093025;28;20024;-86
2023/07/11 02:11:29;;;;;;;9.07;6.00;;;;;;;19.00;72.21;101434.09;5074926;28;20061;-86
2023/07/11 02:13:54;;;;;;;8.18;6.43;;;;;;;18.92;72.52;101434.78;5074137;28;20028;-86
2023/07/11 02:16:20;;;;;;;7.63;6.13;;;;;;;18.99;72.25;101432.41;5073740;28;20059;-86
2023/07/11 02:18:45;;;;;;;8.25;6.43;;;;;;;18.87;72.68;101425.41;5073873;28;20371;-86
2023/07/11 02:21:11;;;;;;;9.38;6.28;;;;;;;18.91;72.43;101432.22;5090466;28;20031;-85
2023/07/11 02:23:36;;;;;;;9.52;6.47;;;;;;;18.80;72.65;101417.88;5091106;28;20197;-86
2023/07/11 02:26:02;;;;;;;13.57;6.15;;;;;;;18.81;72.79;101411.47;5091541;28;20020;-86
2023/07/11 02:28:27;;;;;;;7.55;6.15;;;;;;;18.63;73.02;101398.78;5090741;28;20028;-86
2023/07/11 02:30:53;;;;;;;7.43;6.55;;;;;;;18.63;72.61;101399.63;5072026;28;20043;-86
2023/07/11 02:33:18;;;;;;;9.02;6.32;;;;;;;18.66;73.41;101391.25;5073364;28;20036;-86
2023/07/11 02:35:43;;;;;;;13.07;5.97;;;;;;;18.69;73.60;101390.13;5081054;28;20054;-85
2023/07/11 02:38:09;;;;;;;8.00;6.20;;;;;;;18.69;73.87;101400.91;5056334;28;20060;-86
2023/07/11 02:40:34;;;;;;;12.57;7.00;;;;;;;18.66;73.99;101393.09;5088728;28;20470;-86
2023/07/11 02:43:00;;;;;;;11.93;7.38;;;;;;;18.50;74.25;101385.50;5105932;28;20117;-86
2023/07/11 02:45:25;;;;;;;9.13;6.63;;;;;;;18.48;74.62;101387.50;5108139;28;20028;-85
2023/07/11 02:47:55;;;;;;;11.68;7.15;;;;;;;18.59;74.31;101385.56;5074414;28;20051;-85
2023/07/11 02:50:23;;;;;;;12.48;6.20;;;;;;;18.49;74.85;101373.88;5092163;28;20024;-86
2023/07/11 02:52:48;;;;;;;12.52;6.82;;;;;;;18.60;74.68;101376.47;5082955;28;20081;-86
2023/07/11 02:55:14;;;;;;;13.18;5.88;;;;;;;18.52;74.97;101370.91;5099305;28;20037;-86
2023/07/11 02:57:40;;;;;;;10.00;6.40;;;;;;;18.47;75.24;101375.00;5064579;28;20023;-86
2023/07/11 03:00:09;;;;;;;9.73;6.43;;;;;;;18.44;75.00;101356.41;5094509;28;20467;-86
2023/07/11 03:02:39;;;;;;;11.02;5.90;;;;;;;18.55;75.27;101370.66;5094574;28;20467;-85
2023/07/11 03:05:08;;;;;;;12.73;6.68;;;;;;;18.44;75.27;101365.34;5095809;28;20016;-86
2023/07/11 03:07:35;;;;;;;7.50;6.80;;;;;;;18.46;75.95;101371.47;5078402;28;20107;-86
2023/07/11 03:10:01;;;;;;;12.32;7.32;;;;;;;18.41;75.51;101354.00;5077318;28;20035;-86
2023/07/11 03:12:26;;;;;;;10.38;7.40;;;;;;;18.28;76.02;101346.16;5076789;28;20024;-86
2023/07/11 03:14:52;;;;;;;10.43;7.18;;;;;;;18.16;75.76;101307.69;5095550;28;20028;-85
2023/07/11 03:17:20;;;;;;;10.32;7.10;;;;;;;18.19;76.46;101336.19;5077796;28;20092;-86
2023/07/11 03:19:45;;;;;;;8.60;7.77;;;;;;;18.42;76.06;101348.50;5097701;28;20030;-85
2023/07/11 03:22:11;;;;;;;7.78;6.97;;;;;;;18.44;76.04;101342.94;5074770;28;20373;-86
2023/07/11 03:24:46;;;;;;;9.57;7.15;;;;;;;18.22;75.71;101300.91;5094874;28;20020;-86
2023/07/11 03:27:13;;;;;;;11.85;7.80;;;;;;;18.35;76.73;101340.09;5077539;28;20064;-86
2023/07/11 03:29:38;;;;;;;9.27;7.10;;;;;;;18.41;76.47;101338.69;5094212;28;20028;-86
2023/07/11 03:32:05;;;;;;;10.15;6.97;;;;;;;18.25;76.41;101322.19;5093768;28;20118;-86
2023/07/11 03:34:33;;;;;;;11.32;7.35;;;;;;;18.26;76.83;101330.13;5075956;28;20119;-86
2023/07/11 03:36:59;;;;;;;10.00;6.97;;;;;;;18.22;77.38;101338.63;5095309;28;20076;-86
2023/07/11 03:39:26;;;;;;;8.20;6.32;;;;;;;18.23;76.93;101322.31;5076826;28;20405;-86
2023/07/11 03:41:54;;;;;;;8.20;6.55;;;;;;;18.17;77.35;101331.78;5092074;28;20024;-87
2023/07/11 03:44:23;;;;;;;15.30;7.20;;;;;;;18.17;77.69;101333.63;5074887;28;20025;-87
2023/07/11 03:46:48;;;;;;;12.70;7.07;;;;;;;18.05;77.77;101319.38;5067269;28;20020;-86
2023/07/11 03:49:14;;;;;;;10.95;6.97;;;;;;;18.18;77.13;101316.50;5076891;28;20027;-86
2023/07/11 03:51:41;;;;;;;9.13;6.22;;;;;;;18.12;77.62;101338.56;5076881;28;20020;-86
2023/07/11 03:54:07;;;;;;;13.27;6.43;;;;;;;18.10;77.14;101333.31;5076333;28;20027;-87
2023/07/11 03:56:32;;;;;;;7.05;6.35;;;;;;;18.03;77.76;101325.88;5071172;28;20020;-87
2023/07/11 03:59:00;;;;;;;9.55;6.10;;;;;;;17.88;77.92;101306.53;5094340;28;20475;-87
2023/07/11 04:01:25;;;;;;;11.52;6.32;;;;;;;18.11;76.94;101323.38;5075406;28;20096;-86
2023/07/11 04:03:52;;;;;;;10.43;6.72;;;;;;;18.11;76.38;101309.94;5092149;28;20476;-86
2023/07/11 04:06:17;;;;;;;8.40;6.88;;;;;;;18.23;75.97;101325.00;5078950;28;20046;-86
2023/07/11 04:08:43;;;;;;;8.45;6.45;;;;;;;18.22;75.40;101317.91;5093674;28;20452;-86
2023/07/11 04:11:09;;;;;;;7.88;6.90;;;;;;;18.38;75.13;101320.97;5076085;28;20145;-85
2023/07/11 04:13:34;;;;;;;9.23;6.38;;;;;;;18.32;74.59;101308.06;5089671;28;20040;-86
2023/07/11 04:16:04;;;;;;;12.10;6.38;;;;;;;18.28;74.81;101312.00;5088883;28;20056;-86
2023/07/11 04:18:32;;;;;;;9.95;5.93;;;;;;;18.27;75.46;101304.06;5082082;28;20035;-86
2023/07/11 04:21:00;;;;;;;8.90;6.20;;;;;;;18.34;74.66;101305.22;5084535;28;20051;-86
2023/07/11 04:23:26;;;;;;;7.00;6.32;;;;;;;18.45;74.20;101310.50;5086729;28;20028;-85
2023/07/11 04:25:52;;;;;;;7.50;6.68;;;;;;;18.52;73.88;101303.56;5104631;28;20023;-86
2023/07/11 04:28:18;;;;;;;8.23;6.07;;;;;;;18.56;73.61;101299.63;5109621;28;20101;-86
2023/07/11 04:30:44;;;;;;;7.15;5.88;;;;;;;18.60;73.03;101303.75;5093932;28;20016;-86
2023/07/11 04:33:14;;;;;;;7.22;6.50;;;;;;;18.62;73.22;101300.91;5069728;28;20145;-85
2023/07/11 04:35:40;;;;;;;8.98;6.35;;;;;;;18.69;72.54;101296.66;5092232;28;20494;-86
2023/07/11 04:38:06;;;;;;;9.27;5.97;;;;;;;18.68;72.67;101303.06;5093610;28;20024;-86
2023/07/11 04:40:31;;;;;;;8.93;6.30;;;;;;;18.63;72.81;101289.16;5064462;28;20028;-86
2023/07/11 04:42:58;;;;;;;7.38;6.13;;;;;;;18.78;72.18;101295.03;5102310;28;20107;-86
2023/07/11 04:45:26;;;;;;;9.75;6.30;;;;;;;18.78;72.49;101287.78;5097118;28;20016;-86
2023/07/11 04:47:51;;;;;;;8.43;5.47;;;;;;;18.83;72.27;101285.53;5093601;28;20054;-86
2023/07/11 04:50:17;;;;;;;7.15;5.93;;;;;;;18.92;71.77;101288.38;5094407;28;20028;-86
2023/07/11 04:52:44;;;;;;;7.63;5.80;;;;;;;18.94;72.17;101294.47;5074561;28;20042;-86
2023/07/11 04:55:09;;;;;;;12.80;5.40;;;;;;;18.98;70.91;101285.97;5091660;28;20024;-86
2023/07/11 04:57:38;;;;;;;13.35;6.15;;;;;;;18.98;70.23;101277.03;5058000;28;20440;-86
2023/07/11 05:00:05;;;;;;;9.38;5.22;;;;;;;18.96;70.59;101266.38;5071243;28;20036;-86
2023/07/11 05:02:31;;;;;;;6.30;5.70;;;;;;;19.11;69.60;101282.13;5062011;28;20065;-86
2023/07/11 05:04:56;;;;;;;6.82;5.20;;;;;;;19.16;69.51;101275.34;5076796;28;20020;-85
2023/07/11 05:07:22;;;;;;;10.25;5.90;;;;;;;19.06;70.47;101252.91;5099369;28;20423;-87
2023/07/11 05:09:47;;;;;;;7.68;5.10;;;;;;;19.18;69.38;101267.97;5067553;28;20487;-85
2023/07/11 05:12:14;;;;;;;7.28;5.70;;;;;;;19.27;68.76;101277.03;5075420;28;20036;-87
2023/07/11 05:14:42;;;;;;;7.05;5.40;;;;;;;19.25;68.89;101255.59;5090871;28;20016;-86
2023/07/11 05:17:10;;;;;;;8.35;5.63;;;;;;;19.27;69.57;101250.06;5074469;28;20462;-87
2023/07/11 05:19:35;;;;;;;8.95;5.95;;;;;;;19.45;68.96;101271.78;5074549;28;20383;-88
2023/07/11 05:22:00;;;;;;;8.18;5.35;;;;;;;19.49;68.71;101267.78;5074689;28;20020;-85
2023/07/11 05:24:26;;;;;;;7.65;5.85;;;;;;;19.50;68.27;101258.66;5075540;28;20031;-86
2023/07/11 05:26:54;;;;;;;10.50;5.82;;;;;;;19.54;68.10;101259.25;5074730;28;20081;-86
2023/07/11 05:29:19;;;;;;;8.35;5.40;;;;;;;19.54;67.89;101246.63;5092880;28;20035;-86
2023/07/11 05:31:44;;;;;;;8.52;5.60;;;;;;;19.64;68.54;101257.38;5074818;28;20030;-85
2023/07/11 05:34:10;;;;;;;8.48;5.75;;;;;;;19.65;67.38;101251.03;5091319;28;20040;-85
2023/07/11 05:36:36;;;;;;;6.65;4.80;;;;;;;19.70;67.33;101244.19;5108782;28;20050;-86
2023/07/11 05:39:06;;;;;;;9.93;5.43;;;;;;;19.77;67.30;101249.84;5108251;28;20444;-86
2023/07/11 05:41:33;;;;;;;10.43;5.25;;;;;;;19.85;67.10;101252.66;5092778;28;20438;-86
2023/07/11 05:43:59;;;;;;;10.80;5.35;;;;;;;19.88;67.20;101246.09;5090893;28;20035;-87
2023/07/11 05:46:28;;;;;;;8.07;5.20;;;;;;;19.96;66.75;101248.94;5090950;28;20024;-87
2023/07/11 05:48:55;;;;;;;9.55;5.40;;;;;;;19.98;66.80;101238.84;5091241;28;20031;-89
2023/07/11 05:51:22;;;;;;;9.02;4.80;;;;;;;20.12;67.30;101245.63;5084909;28;20483;-88
2023/07/11 05:53:51;;;;;;;10.05;5.05;;;;;;;20.24;66.42;101230.06;5100157;28;20032;-87
2023/07/11 05:56:18;;;;;;;7.95;4.47;;;;;;;20.36;66.28;101237.78;5091004;28;20032;-87
2023/07/11 05:58:46;;;;;;;8.60;4.60;;;;;;;20.47;65.86;101241.28;5075043;28;20028;-85
2023/07/11 06:01:13;;;;;;;11.00;4.43;;;;;;;20.63;65.06;101236.09;5091023;28;20478;-85
2023/07/11 06:03:45;;;;;;;7.47;4.38;;;;;;;20.71;64.68;101229.94;5092045;28;20402;-85
2023/07/11 06:06:14;;;;;;;9.50;4.32;;;;;;;20.85;64.17;101232.97;5091975;28;20031;-86
2023/07/11 06:08:39;;;;;;;;;;;;;;;21.01;64.33;101229.53;5084954;28;20032;-85
2023/07/11 06:11:06;;;;;;;8.32;4.22;;;;;;;20.95;64.35;101219.34;5093411;28;19919;-85
2023/07/11 06:13:35;;;;;;;8.43;4.60;;;;;;;21.15;64.55;101225.44;5091911;28;20390;-86
2023/07/11 06:16:03;;;;;;;8.00;4.07;;;;;;;21.25;63.53;101228.03;5075714;28;20020;-86
2023/07/11 06:18:30;;;;;;;9.85;3.97;;;;;;;21.35;63.25;101217.13;5108946;28;20031;-86
2023/07/11 06:20:55;;;;;;;8.00;4.05;;;;;;;21.42;63.49;101224.50;5092345;28;20028;-86
2023/07/11 06:23:23;;;;;;;9.35;4.35;;;;;;;21.47;63.32;101219.47;5073711;28;20074;-84
2023/07/11 06:25:48;;;;;;;10.05;3.90;;;;;;;21.61;62.88;101225.28;5074280;28;20031;-85
2023/07/11 06:28:16;;;;;;;6.75;4.00;;;;;;;21.62;62.05;101219.72;5092664;28;20024;-86
2023/07/11 06:30:43;;;;;;;6.97;3.83;;;;;;;21.51;62.08;101192.91;5090066;28;20051;-86
2023/07/11 06:33:12;;;;;;;8.43;4.10;;;;;;;21.65;63.30;101221.22;5093539;28;20066;-86
2023/07/11 06:35:40;;;;;;;7.53;3.90;;;;;;;21.82;62.48;101225.75;5095215;28;20044;-82
2023/07/11 06:38:08;;;;;;;6.70;3.83;;;;;;;21.86;62.08;101207.34;5077705;28;20102;-84
2023/07/11 06:40:36;;;;;;;9.95;3.88;;;;;;;21.98;61.15;101208.75;5076785;28;20024;-83
2023/07/11 06:43:01;;;;;;;7.05;4.00;;;;;;;22.10;60.81;101206.59;5095557;28;20028;-82
2023/07/11 06:45:29;;;;;;;7.72;3.92;;;;;;;22.09;60.10;101213.88;5076881;28;20016;-86
2023/07/11 06:47:55;;;;;;;8.43;3.90;;;;;;;22.35;59.87;101218.38;5111220;28;20024;-83
2023/07/11 06:50:20;;;;;;;5.97;3.72;;;;;;;22.35;59.29;101215.66;5095406;28;20028;-80
2023/07/11 06:52:45;;;;;;;9.90;3.80;;;;;;;22.35;59.40;101216.50;5077271;28;20023;-80
2023/07/11 06:55:12;;;;;;;9.65;3.67;;;;;;;22.49;58.43;101219.63;5094836;28;20379;-85
2023/07/11 06:57:41;;;;;;;7.60;3.63;;;;;;;22.48;57.70;101215.22;5110858;28;20116;-82
2023/07/11 07:00:07;;;;;;;9.27;4.10;;;;;;;22.63;58.10;101218.97;5110707;28;20027;-85
2023/07/11 07:02:33;;;;;;;8.30;4.00;;;;;;;22.70;57.74;101190.16;5095235;28;20020;-84
2023/07/11 07:04:58;;;;;;;8.68;3.83;;;;;;;22.81;57.34;101203.41;5094578;28;20024;-82
2023/07/11 07:07:26;;;;;;;11.40;4.15;;;;;;;22.80;57.11;101196.28;5076831;28;20027;-83
2023/07/11 07:09:52;;;;;;;13.97;4.00;;;;;;;22.92;55.78;101207.66;5094439;28;20535;-81
2023/07/11 07:12:17;;;;;;;6.85;3.30;;;;;;;22.87;57.03;101191.88;5095021;28;20128;-82
2023/07/11 07:14:43;;;;;;;8.95;3.47;;;;;;;23.03;56.96;101210.06;5076211;28;20035;-83
2023/07/11 07:17:08;;;;;;;7.45;3.85;;;;;;;23.02;56.26;101194.78;5094990;28;20387;-85
2023/07/11 07:19:36;;;;;;;7.03;4.07;;;;;;;23.10;55.43;101199.38;5076672;28;20077;-86
2023/07/11 07:22:04;;;;;;;7.07;3.92;;;;;;;23.15;54.90;101202.44;5094919;28;20027;-83
2023/07/11 07:24:32;;;;;;;8.00;3.65;;;;;;;23.30;55.01;101221.59;5094233;28;20063;-85
2023/07/11 07:26:58;;;;;;;10.90;3.25;;;;;;;23.34;54.69;101212.91;5094659;28;20024;-85
2023/07/11 07:29:24;;;;;;;9.45;3.10;;;;;;;23.44;53.65;101211.88;5110242;28;20035;-81
2023/07/11 07:31:50;;;;;;;9.20;3.75;;;;;;;23.43;53.23;101196.63;5110172;28;20024;-83
2023/07/11 07:34:15;;;;;;;7.10;3.17;;;;;;;23.52;53.47;101209.16;5109799;28;20518;-84
2023/07/11 07:36:40;;;;;;;8.65;3.45;;;;;;;23.49;53.48;101191.34;5076149;28;20123;-82
2023/07/11 07:39:06;;;;;;;5.13;3.30;;;;;;;23.67;53.26;101204.72;5109764;28;20023;-81
2023/07/11 07:41:34;;;;;;;7.93;3.53;;;;;;;23.63;53.48;101191.66;5110327;28;20077;-82
2023/07/11 07:43:59;;;;;;;6.65;3.30;;;;;;;23.76;52.83;101198.25;5108923;28;20008;-82
2023/07/11 07:46:28;;;;;;;12.88;3.63;;;;;;;23.74;52.77;101194.88;5094803;28;20020;-86
2023/07/11 07:48:53;;;;;;;9.57;3.40;;;;;;;23.90;52.54;101193.97;5110026;28;20028;-82
2023/07/11 07:51:19;;;;;;;6.25;3.20;;;;;;;24.05;52.21;101185.09;5109928;28;20120;-81
2023/07/11 07:53:45;;;;;;;6.25;3.22;;;;;;;24.01;51.78;101177.28;5093726;28;20382;-81
2023/07/11 07:56:17;;;;;;;5.85;3.45;;;;;;;24.18;51.35;101178.06;5093691;28;20020;-81
2023/07/11 07:58:46;;;;;;;9.70;3.20;;;;;;;24.25;50.09;101180.91;5093889;28;20061;-82
2023/07/11 08:01:16;;;;;;;9.25;3.70;;;;;;;24.37;50.66;101181.34;5076027;28;20031;-85
2023/07/11 08:03:41;;;;;;;7.43;3.35;;;;;;;24.45;49.79;101175.91;5093716;28;20429;-83
2023/07/11 08:06:08;;;;;;;6.18;3.17;;;;;;;24.45;49.13;101159.59;5075402;28;20032;-84
2023/07/11 08:08:34;;;;;;;6.35;2.97;;;;;;;24.49;49.31;101171.78;5075229;28;20077;-91
2023/07/11 08:11:04;;;;;;;8.23;2.90;;;;;;;24.22;51.00;101152.22;5075287;28;20020;-84
2023/07/11 08:13:30;;;;;;;6.15;3.40;;;;;;;24.23;49.48;101177.50;5093501;28;20031;-81
2023/07/11 08:15:55;;;;;;;7.38;2.75;;;;;;;24.44;49.83;101166.03;5075219;28;20020;-84
2023/07/11 08:18:23;;;;;;;10.38;3.20;;;;;;;24.55;49.46;101179.22;5093708;28;20043;-81
2023/07/11 08:20:48;;;;;;;7.30;3.07;;;;;;;24.60;49.79;101159.66;5093457;28;20364;-81
2023/07/11 08:23:14;;;;;;;4.45;3.03;;;;;;;24.74;49.89;101158.00;5074934;28;20050;-84
2023/07/11 08:25:42;;;;;;;9.18;3.33;;;;;;;24.92;51.35;101153.94;5108806;28;20038;-82
2023/07/11 08:28:07;;;;;;;5.70;3.00;;;;;;;25.01;49.25;101165.63;5108974;28;20039;-84
2023/07/11 08:30:39;;;;;;;6.15;3.30;;;;;;;25.02;48.85;101161.00;5108930;28;20023;-82
2023/07/11 08:33:05;;;;;;;5.68;3.17;;;;;;;25.17;48.99;101156.47;5075092;28;20028;-82
2023/07/11 08:35:30;;;;;;;6.57;3.22;;;;;;;25.27;48.51;101148.91;5085025;28;20041;-84
2023/07/11 08:37:56;;;;;;;6.53;3.50;;;;;;;25.32;47.96;101159.22;5053188;28;20027;-89
2023/07/11 08:40:25;;;;;;;7.30;2.97;;;;;;;25.41;48.38;101157.25;5055024;28;20021;-85
2023/07/11 08:42:51;;;;;;;;;;;;;;;25.46;49.02;101160.25;5054920;28;20365;-88
2023/07/11 08:45:21;;;;;;;8.65;3.13;;;;;;;25.51;49.39;101157.84;5052286;28;19928;-88
2023/07/11 08:48:14;;;;;;;9.35;2.70;;;;;;;25.65;47.58;101158.84;5052038;28;20021;-87
2023/07/11 08:50:47;;;;;;;11.60;3.03;;;;;;;25.54;47.96;101122.03;5051945;28;20108;-83
2023/07/11 08:53:17;;;;;;;6.93;2.80;;;;;;;25.38;47.61;101143.00;5051587;28;20029;-88
2023/07/11 08:55:48;;;;;;;6.53;3.35;;;;;;;25.64;47.04;101157.16;5050607;28;20044;-86
2023/07/11 08:58:22;;;;;;;9.63;3.67;;;;;;;25.52;47.76;101144.00;5052501;28;20365;-81
2023/07/11 09:00:50;;;;;;;8.57;3.50;;;;;;;25.66;48.34;101145.06;5052892;28;20499;-87
2023/07/11 09:03:27;;;;;;;8.95;3.33;;;;;;;25.64;47.88;101141.66;5052844;28;20476;-87
2023/07/11 09:06:15;;;;;;;6.78;3.13;;;;;;;25.68;47.67;101140.28;5050921;28;20506;-84
2023/07/11 09:08:43;;;;;;;6.70;3.25;;;;;;;25.87;46.99;101144.31;5050926;28;20025;-82
2023/07/11 09:11:15;;;;;;;8.07;3.20;;;;;;;25.95;46.70;101138.75;5052511;28;20103;-82
2023/07/11 09:14:17;;;;;;;7.05;2.90;;;;;;;25.85;47.48;101150.97;5051271;28;20036;-86
2023/07/11 09:16:49;;;;;;;10.05;3.38;;;;;;;25.67;47.26;101137.72;5052490;28;20392;-83
2023/07/11 09:19:25;;;;;;;8.88;3.30;;;;;;;25.65;47.60;101124.31;5052369;28;20032;-85
2023/07/11 09:22:03;;;;;;;5.15;3.05;;;;;;;25.87;49.48;101141.59;5052343;28;20095;-84
2023/07/11 09:25:07;;;;;;;5.78;3.70;;;;;;;25.97;47.43;101139.44;5049363;28;20067;-83
2023/07/11 09:27:37;;;;;;;7.60;2.90;;;;;;;26.07;48.36;101135.53;5049778;28;20123;-84
2023/07/11 09:30:35;;;;;;;5.75;3.00;;;;;;;26.17;47.41;101125.16;5047686;28;20487;-84
2023/07/11 09:33:14;;;;;;;7.95;3.28;;;;;;;26.03;47.35;101135.06;5041337;28;20452;-84
2023/07/11 09:35:44;;;;;;;6.75;3.38;;;;;;;26.13;46.61;101123.88;5089917;28;20056;-84
2023/07/11 09:38:23;;;;;;;8.70;3.35;;;;;;;26.18;46.79;101135.88;5078920;28;20027;-75
2023/07/11 09:40:51;;;;;;;8.57;3.30;;;;;;;26.21;45.93;101130.06;5067925;28;20161;-75
2023/07/11 09:43:16;;;;;;;9.50;2.95;;;;;;;26.15;46.22;101121.78;5092021;28;20098;-75
2023/07/11 09:45:46;;;;;;;6.30;2.92;;;;;;;26.28;45.39;101132.84;5091261;28;20123;-84
2023/07/11 09:48:27;;;;;;;8.90;3.55;;;;;;;26.21;45.99;101118.31;5075904;28;20111;-81
2023/07/11 09:51:01;;;;;;;8.77;3.58;;;;;;;26.52;45.27;101120.75;5081014;28;20032;-76
2023/07/11 09:53:29;;;;;;;5.40;3.42;;;;;;;26.43;44.66;101103.63;5072114;28;20063;-75
2023/07/11 09:56:00;;;;;;;9.52;3.45;;;;;;;26.60;45.83;101117.06;5092951;28;20363;-76
2023/07/11 09:58:29;;;;;;;7.30;3.50;;;;;;;26.70;45.79;101110.19;5092268;28;20429;-78
2023/07/11 10:01:01;;;;;;;20.35;4.05;;;;;;;26.59;45.26;101118.94;5073708;28;20012;-76
2023/07/11 10:03:29;;;;;;;12.15;3.28;;;;;;;26.49;46.56;101107.47;5090335;28;20060;-77
2023/07/11 10:05:55;;;;;;;7.20;3.47;;;;;;;26.51;45.32;101108.16;5074590;28;20028;-76
2023/07/11 10:08:28;;;;;;;7.93;3.63;;;;;;;26.31;45.78;101082.53;5078067;28;20269;-75
2023/07/11 10:11:00;;;;;;;7.78;3.33;;;;;;;26.40;45.65;101103.19;5079767;28;20036;-77
2023/07/11 10:13:26;;;;;;;9.93;3.50;;;;;;;26.54;45.58;101109.66;5066909;28;20081;-76
2023/07/11 10:15:53;;;;;;;9.00;3.67;;;;;;;26.55;45.76;101112.16;5078430;28;20032;-78
2023/07/11 10:18:23;;;;;;;8.95;3.70;;;;;;;26.57;46.39;101101.91;5076505;28;20043;-76
2023/07/11 10:20:59;;;;;;;9.98;3.53;;;;;;;26.70;46.69;101109.34;5075410;28;20034;-77
2023/07/11 10:23:27;;;;;;;10.32;3.58;;;;;;;26.68;45.48;101103.28;5083920;28;20463;-78
2023/07/11 10:26:13;;;;;;;11.32;4.05;;;;;;;26.69;46.07;101113.97;5081263;28;20035;-79
2023/07/11 10:28:44;;;;;;;13.75;3.42;;;;;;;26.65;46.06;101090.00;5068809;28;20090;-80
2023/07/11 10:31:19;;;;;;;13.05;4.50;;;;;;;26.71;45.50;101100.16;5095153;28;20105;-79
2023/07/11 10:34:05;;;;;;;10.82;3.60;;;;;;;26.85;46.53;101095.63;5072561;28;20071;-80
2023/07/11 10:37:12;;;;;;;7.43;3.88;;;;;;;26.98;46.21;101075.78;5100890;28;20047;-79
2023/07/11 10:39:51;;;;;;;8.10;3.65;;;;;;;26.80;45.04;101071.66;5071912;28;20177;-81
2023/07/11 10:42:33;;;;;;;12.68;4.22;;;;;;;26.93;45.98;101073.66;5093564;28;20016;-79
2023/07/11 10:45:07;;;;;;;6.43;3.30;;;;;;;27.08;45.39;101077.09;5093681;28;20024;-79
2023/07/11 10:47:38;;;;;;;13.02;3.97;;;;;;;27.16;44.51;101079.72;5093743;28;20445;-80
2023/07/11 10:50:23;;;;;;;10.27;4.05;;;;;;;27.06;45.30;101068.28;5076959;28;20055;-78
2023/07/11 10:52:53;;;;;;;11.27;4.10;;;;;;;27.16;45.44;101081.63;5095295;28;20488;-79
2023/07/11 10:55:24;;;;;;;8.02;3.60;;;;;;;27.28;44.38;101074.53;5094769;28;20463;-79
2023/07/11 10:57:52;;;;;;;6.95;3.10;;;;;;;27.27;45.54;101074.75;5094175;28;20471;-78
2023/07/11 11:00:23;;;;;;;6.55;3.22;;;;;;;27.20;42.95;101074.69;5076659;28;20032;-78
2023/07/11 11:03:14;;;;;;;5.72;3.28;;;;;;;27.24;43.07;101076.00;5110925;28;20016;-78
2023/07/11 11:05:54;;;;;;;8.25;3.25;;;;;;;27.34;44.00;101062.81;5076641;28;20028;-80
2023/07/11 11:08:36;;;;;;;6.65;3.10;;;;;;;27.31;43.57;101068.66;5094612;28;20020;-80
2023/07/11 11:11:04;;;;;;;8.35;3.50;;;;;;;27.53;42.22;101068.56;5076882;28;20020;-78
2023/07/11 11:13:53;;;;;;;10.63;3.50;;;;;;;27.61;42.96;101057.47;5076528;28;20471;-80
2023/07/11 11:16:37;;;;;;;11.95;3.55;;;;;;;27.66;43.94;101046.78;5045178;28;20391;-80
2023/07/11 11:19:21;;;;;;;9.13;3.55;;;;;;;27.84;42.98;101055.28;5075292;28;20062;-81
2023/07/11 11:22:05;;;;;;;8.57;3.53;;;;;;;27.80;43.02;101044.97;5110781;28;20039;-80
2023/07/11 11:24:51;;;;;;;5.50;3.33;;;;;;;27.85;43.53;101043.31;5094253;28;20023;-79
2023/07/11 11:27:43;;;;;;;8.75;3.30;;;;;;;28.06;43.59;101031.34;5091214;28;20036;-79
2023/07/11 11:30:31;;;;;;;4.60;3.05;;;;;;;27.98;42.38;101027.97;5043628;28;20043;-79
2023/07/11 11:33:18;;;;;;;8.35;3.50;;;;;;;28.04;42.08;101029.88;5110290;28;20426;-78